Etusivu
METAR-TAF:

METAR-TAF

Lentoasemat :

Houma-Terrebonne Airport

Houma, Louisiana, Yhdysvallat

Leveyspiiri: 29-34N, Pituuspiiri: 090-40W, korkeus merenpinnasta: 3 m

Tämänhetkinen sää

Tämä raportti tehtiin 56 minuuttia sitten, kello 13.50 UTC
Tuuli 6 kn pohjoisen/luoteesta
Lämpötila 18°C
Kosteus 83%
Ilmanpaine 1009 hPa
Näkyvyys: 11.3 km
selkeää

METAR: KHUM 191350Z 33006KT 7SM SKC 18/15 A2979

Aika: 09:46 (14:46 UTC)

Sääennuste

Tämä raportti tehtiin 3 tuntia ja 5 minuuttia sitten, kello 11.41 UTC
Ennuste voimassa 19. päivästä klo 12 UTC - 20. päivään klo 12 UTC
Tuuli 6 kn luoteesta
Näkyvyys: 10 km
Hajanaisia pilviä 5000 ft:n korkeudessa
From 19. päivästä klo 1600 UTC
Tuuli 6 kn luoteesta
Näkyvyys: 10 km
Hajanaisia pilviä 4000 ft:n korkeudessa
From 20. päivästä klo 0700 UTC
Tuuli kn pohjoisesta
Näkyvyys: 0.8 km
Muutamia pilviä 25000 ft:n korkeudessa
sumua

TAF: KHUM 191141Z 1912/2012 31006KT P6SM SCT050 FM191600 32006KT P6SM SCT040 FM200700 00000KT 1/2SM FG FEW250

Säähavainnot ja -ennusteet yli 4000 lentoasemalta (METAR- ja TAF-raportit).

Käytössä olevat sääasemat on merkitty karttaan keltaisilla ja punaisilla pisteillä.

Aseta hiiri pisteen päälle nähdäksesi sääaseman nimen.

Klikkaa sitten nähdäksesi säähavainnot ja -ennusteet.

Kartan vaihtaminen: klikkaa mustalla rastilla varustettuja vihreitä pisteitä, niin voit zoomata sisään; viivalla varustettua vihreää pistettä, niin voit zoomata ulos tai vihreitä nuolia, niin pääset viereisille kartoille.


METAR-TAF: